createdAt,value
2023-02-11T00:01:28.698Z,0.20
2023-02-11T00:03:57.454Z,0.20
2023-02-11T00:06:26.435Z,0.20
2023-02-11T00:08:53.729Z,0.10
2023-02-11T00:11:22.757Z,0.10
2023-02-11T00:13:50.415Z,0.10
2023-02-11T00:16:20.400Z,0.10
2023-02-11T00:18:48.392Z,0.10
2023-02-11T00:21:21.754Z,0.10
2023-02-11T00:23:49.751Z,0.00
2023-02-11T00:26:22.637Z,-0.10
2023-02-11T00:28:51.505Z,0.10
2023-02-11T00:31:20.913Z,0.10
2023-02-11T00:33:48.978Z,0.00
2023-02-11T00:36:25.686Z,0.10
2023-02-11T00:38:54.924Z,0.10
2023-02-11T00:41:23.494Z,0.10
2023-02-11T00:43:52.718Z,0.10
2023-02-11T00:46:21.033Z,0.10
2023-02-11T00:48:48.793Z,0.00
2023-02-11T00:51:16.149Z,0.00
2023-02-11T00:53:43.528Z,-0.10
2023-02-11T00:56:11.158Z,-0.10
2023-02-11T00:58:38.441Z,-0.10
2023-02-11T01:01:05.796Z,-0.20
2023-02-11T01:03:33.030Z,-0.10
2023-02-11T01:06:00.531Z,0.00
2023-02-11T01:08:27.848Z,-0.10
2023-02-11T01:11:06.809Z,-0.20
2023-02-11T01:13:37.352Z,-0.20
2023-02-11T01:16:07.992Z,-0.20
2023-02-11T01:18:35.897Z,-0.20
2023-02-11T01:21:04.180Z,-0.30
2023-02-11T01:23:31.480Z,-0.20
2023-02-11T01:25:58.907Z,-0.20
2023-02-11T01:28:30.642Z,-0.30
2023-02-11T01:31:01.954Z,-0.30
2023-02-11T01:33:29.919Z,-0.40
2023-02-11T01:36:04.848Z,-0.40
2023-02-11T01:38:34.221Z,-0.40
2023-02-11T01:41:08.446Z,-0.40
2023-02-11T01:43:39.093Z,-0.60
2023-02-11T01:46:21.846Z,-0.60
2023-02-11T01:48:55.540Z,-0.60
2023-02-11T01:51:27.610Z,-0.70
2023-02-11T01:54:15.989Z,-0.90
2023-02-11T01:57:08.473Z,-0.90
2023-02-11T01:59:44.810Z,-0.90
2023-02-11T02:02:15.255Z,-1.00
2023-02-11T02:05:00.649Z,-1.00
2023-02-11T02:07:46.228Z,-0.90
2023-02-11T02:10:21.040Z,-0.90
2023-02-11T02:12:48.388Z,-1.00
2023-02-11T02:15:19.756Z,-1.20
2023-02-11T02:17:59.085Z,-1.30
2023-02-11T02:20:29.334Z,-1.20
2023-02-11T02:23:25.229Z,-1.20
2023-02-11T02:26:29.358Z,-1.50
2023-02-11T02:29:19.080Z,-1.70
2023-02-11T02:32:23.703Z,-1.90
2023-02-11T02:35:04.649Z,-2.00
2023-02-11T02:37:38.630Z,-2.10
2023-02-11T02:40:12.961Z,-2.20
2023-02-11T02:42:41.562Z,-2.30
2023-02-11T02:45:11.229Z,-2.40
2023-02-11T02:47:38.403Z,-2.40
2023-02-11T02:50:08.013Z,-2.40
2023-02-11T02:53:06.085Z,-2.50
